createdAt,value
2023-05-02T00:00:29.214Z,9.99
2023-05-02T00:02:55.871Z,10.01
2023-05-02T00:05:22.476Z,9.93
2023-05-02T00:07:48.787Z,9.90
2023-05-02T00:10:15.244Z,9.82
2023-05-02T00:12:41.571Z,9.97
2023-05-02T00:15:08.683Z,9.94
2023-05-02T00:17:35.340Z,9.88
2023-05-02T00:20:01.916Z,9.98
2023-05-02T00:22:28.708Z,10.00
2023-05-02T00:24:58.390Z,9.95
2023-05-02T00:27:25.164Z,9.95
2023-05-02T00:29:52.238Z,9.92
2023-05-02T00:32:18.881Z,9.85
2023-05-02T00:34:45.354Z,9.90
2023-05-02T00:37:11.710Z,9.86
2023-05-02T00:39:38.162Z,9.82
2023-05-02T00:42:04.791Z,9.84
2023-05-02T00:44:31.542Z,9.92
2023-05-02T00:46:58.616Z,9.93
2023-05-02T00:49:25.037Z,10.02
2023-05-02T00:51:51.480Z,9.84
2023-05-02T00:54:18.402Z,9.82
2023-05-02T00:56:45.542Z,9.90
2023-05-02T00:59:12.816Z,9.90
2023-05-02T01:04:29.059Z,9.78
2023-05-02T01:07:51.561Z,9.85
2023-05-02T01:10:31.920Z,9.78
2023-05-02T01:13:10.379Z,9.92
2023-05-02T01:15:38.927Z,9.94
2023-05-02T01:18:08.506Z,9.86
2023-05-02T01:20:41.683Z,10.10
2023-05-02T01:23:32.818Z,10.11
2023-05-02T01:26:26.925Z,9.99
2023-05-02T01:28:58.480Z,10.04
2023-05-02T01:31:27.665Z,9.89
2023-05-02T01:33:56.010Z,9.75
2023-05-02T01:36:25.349Z,9.82
2023-05-02T01:38:52.792Z,9.88
2023-05-02T01:41:20.800Z,9.90
2023-05-02T01:43:48.124Z,9.95
2023-05-02T01:46:15.548Z,9.78
2023-05-02T01:48:46.495Z,9.80
2023-05-02T01:51:14.931Z,9.79
2023-05-02T01:53:43.389Z,9.62
2023-05-02T01:56:10.019Z,9.68
2023-05-02T01:58:38.844Z,9.66
2023-05-02T02:01:06.193Z,9.79
2023-05-02T02:03:32.624Z,9.58
2023-05-02T02:06:00.985Z,9.55
2023-05-02T02:08:27.335Z,9.50
2023-05-02T02:11:04.314Z,9.54
2023-05-02T02:13:35.930Z,9.56
2023-05-02T02:16:05.812Z,9.56
2023-05-02T02:18:37.212Z,9.52
2023-05-02T02:21:07.732Z,9.28
2023-05-02T02:23:36.625Z,9.31
2023-05-02T02:26:04.818Z,9.23
2023-05-02T02:28:31.912Z,9.47
2023-05-02T02:30:58.303Z,9.37
2023-05-02T02:33:29.681Z,9.35
2023-05-02T02:36:08.418Z,9.39
2023-05-02T02:38:45.161Z,9.53
2023-05-02T02:41:18.890Z,9.45
2023-05-02T02:44:01.516Z,9.47
2023-05-02T02:46:53.433Z,9.34
2023-05-02T02:49:31.787Z,9.32
2023-05-02T02:52:12.140Z,9.18
2023-05-02T02:54:53.724Z,9.18
2023-05-02T02:57:47.815Z,9.10
2023-05-02T03:00:20.326Z,8.97
2023-05-02T03:02:47.949Z,8.70
2023-05-02T03:05:15.553Z,8.11
2023-05-02T03:07:42.112Z,8.10
2023-05-02T03:10:09.112Z,7.97
2023-05-02T03:12:35.434Z,7.69
2023-05-02T03:15:29.778Z,7.56
2023-05-02T03:17:56.201Z,7.51
2023-05-02T03:20:22.521Z,7.42
2023-05-02T03:22:48.820Z,7.17
2023-05-02T03:25:15.628Z,7.25
2023-05-02T03:27:41.932Z,7.22
2023-05-02T03:30:08.816Z,7.28
2023-05-02T03:32:35.140Z,7.34
2023-05-02T03:35:01.779Z,7.06
2023-05-02T03:37:28.193Z,6.94
2023-05-02T03:39:54.560Z,6.97
2023-05-02T03:42:21.573Z,6.82
2023-05-02T03:44:47.901Z,6.85
2023-05-02T03:47:14.615Z,6.81
2023-05-02T03:49:41.080Z,6.78
2023-05-02T03:52:07.518Z,6.62
2023-05-02T03:54:33.943Z,6.76
2023-05-02T03:57:00.720Z,6.83
2023-05-02T03:59:27.316Z,6.76
2023-05-02T04:01:53.672Z,6.83
2023-05-02T04:04:20.096Z,6.80
2023-05-02T04:06:46.804Z,6.82
2023-05-02T04:09:13.239Z,6.76
2023-05-02T04:11:39.532Z,6.74
2023-05-02T04:14:05.848Z,6.79
2023-05-02T04:16:32.197Z,6.57
2023-05-02T04:18:59.169Z,6.64
2023-05-02T04:21:25.649Z,6.58
2023-05-02T04:23:52.711Z,6.77
2023-05-02T04:26:18.980Z,6.68
2023-05-02T04:28:45.296Z,6.75
2023-05-02T04:31:11.663Z,6.58
2023-05-02T04:33:38.139Z,6.43
2023-05-02T04:36:04.824Z,6.50
2023-05-02T04:38:31.174Z,6.43
2023-05-02T04:40:57.518Z,6.51
2023-05-02T04:43:24.712Z,6.62
2023-05-02T04:45:51.404Z,6.52
2023-05-02T04:48:17.744Z,6.59
2023-05-02T04:50:45.913Z,6.53
2023-05-02T04:53:12.248Z,6.57
2023-05-02T04:55:38.576Z,6.58
2023-05-02T04:58:04.898Z,6.68
2023-05-02T05:00:31.373Z,6.66
2023-05-02T05:02:59.281Z,6.71
2023-05-02T05:05:27.269Z,6.61
2023-05-02T05:07:53.655Z,6.71
2023-05-02T05:10:20.063Z,6.90
2023-05-02T05:12:46.596Z,6.96
2023-05-02T05:15:12.879Z,7.02
2023-05-02T05:17:39.169Z,6.99
2023-05-02T05:22:38.601Z,6.93
2023-05-02T05:25:05.218Z,6.82
2023-05-02T05:27:31.627Z,6.81
2023-05-02T05:29:58.056Z,6.25
2023-05-02T05:32:25.804Z,6.26
2023-05-02T05:34:53.577Z,6.12
2023-05-02T05:37:21.332Z,6.10
2023-05-02T05:39:48.037Z,6.07
2023-05-02T05:42:14.545Z,6.08
2023-05-02T05:44:40.791Z,6.06
2023-05-02T05:47:07.321Z,6.16
2023-05-02T05:49:38.362Z,6.15
2023-05-02T05:52:05.006Z,6.28
2023-05-02T05:54:31.278Z,6.14
2023-05-02T05:56:57.599Z,6.03
2023-05-02T05:59:23.918Z,5.98
2023-05-02T06:01:50.633Z,6.02
2023-05-02T06:04:16.918Z,6.20
2023-05-02T06:06:43.338Z,6.07
2023-05-02T06:09:09.618Z,6.14
2023-05-02T06:11:37.634Z,6.16
2023-05-02T06:14:03.983Z,6.24
2023-05-02T06:16:30.518Z,6.33
2023-05-02T06:18:56.890Z,6.44
2023-05-02T06:21:23.144Z,6.37
2023-05-02T06:23:49.531Z,6.42
2023-05-02T06:26:16.320Z,6.67
2023-05-02T06:28:42.613Z,6.45
2023-05-02T06:31:08.955Z,6.36
2023-05-02T06:33:36.552Z,6.20
2023-05-02T06:36:03.324Z,6.27
2023-05-02T06:38:30.022Z,6.37
2023-05-02T06:40:56.520Z,6.43
2023-05-02T06:43:22.856Z,6.33
2023-05-02T06:45:49.178Z,6.24
2023-05-02T06:48:15.715Z,6.28
2023-05-02T06:50:42.251Z,6.35
2023-05-02T06:53:08.597Z,6.37
2023-05-02T06:55:34.962Z,6.27
2023-05-02T06:58:01.442Z,6.29
2023-05-02T07:00:27.741Z,6.43
2023-05-02T07:02:54.449Z,6.56
2023-05-02T07:05:20.962Z,6.54
2023-05-02T07:07:47.243Z,6.56
2023-05-02T07:10:13.715Z,6.74
2023-05-02T07:12:40.042Z,6.53
2023-05-02T07:15:08.061Z,6.71
2023-05-02T07:17:34.731Z,6.64
2023-05-02T07:20:01.369Z,6.37
2023-05-02T07:22:27.908Z,6.46
2023-05-02T07:24:59.274Z,6.68
2023-05-02T07:27:25.672Z,6.57
2023-05-02T07:29:51.996Z,6.49
2023-05-02T07:32:18.452Z,6.62
2023-05-02T07:34:45.093Z,6.79
2023-05-02T07:37:11.942Z,6.76
2023-05-02T07:39:38.220Z,6.83
2023-05-02T07:42:04.558Z,6.77
2023-05-02T07:44:33.103Z,7.05
2023-05-02T07:46:59.839Z,7.18
2023-05-02T07:49:26.220Z,7.23
2023-05-02T07:51:52.490Z,7.37
2023-05-02T07:54:20.186Z,7.21
2023-05-02T07:56:47.219Z,7.16
2023-05-02T07:59:13.677Z,7.07
2023-05-02T08:01:41.543Z,7.18
2023-05-02T08:04:10.380Z,6.86
2023-05-02T08:06:37.535Z,7.02
2023-05-02T08:09:04.014Z,7.24
2023-05-02T08:11:30.369Z,7.28
2023-05-02T08:13:56.669Z,7.18
2023-05-02T08:16:22.994Z,7.41
2023-05-02T08:18:49.461Z,7.38
2023-05-02T08:21:15.733Z,7.38
2023-05-02T08:23:42.179Z,7.67
2023-05-02T08:26:08.553Z,7.67
2023-05-02T08:28:34.893Z,7.82
2023-05-02T08:31:01.206Z,7.62
2023-05-02T08:33:27.494Z,7.63
2023-05-02T08:35:54.028Z,7.62
2023-05-02T08:38:20.411Z,7.80
2023-05-02T08:40:46.737Z,8.04
2023-05-02T08:43:13.397Z,8.09
2023-05-02T08:45:42.542Z,8.30
2023-05-02T08:48:14.803Z,8.20
2023-05-02T08:50:45.245Z,8.11
2023-05-02T08:53:13.506Z,7.85
2023-05-02T08:55:41.556Z,7.80
2023-05-02T08:58:11.502Z,8.06
2023-05-02T09:00:42.172Z,8.36
2023-05-02T09:03:23.572Z,8.58
2023-05-02T09:05:55.045Z,8.66
2023-05-02T09:08:23.139Z,8.82
2023-05-02T09:10:49.537Z,8.73
2023-05-02T09:13:29.329Z,8.86
2023-05-02T09:16:00.637Z,9.04
2023-05-02T09:18:30.046Z,9.26
2023-05-02T09:20:58.514Z,9.04
2023-05-02T09:23:41.769Z,8.62
2023-05-02T09:26:21.996Z,8.96
2023-05-02T09:28:54.784Z,9.19
2023-05-02T09:31:49.703Z,9.19
2023-05-02T09:34:17.502Z,8.89
2023-05-02T09:36:51.235Z,8.96
2023-05-02T09:39:21.474Z,9.26
2023-05-02T09:41:49.549Z,9.33
2023-05-02T09:44:18.404Z,9.52
2023-05-02T09:46:46.813Z,9.58
2023-05-02T09:49:14.757Z,9.15
2023-05-02T09:51:43.760Z,9.05
2023-05-02T09:54:10.330Z,9.24
2023-05-02T09:56:53.871Z,9.30
2023-05-02T09:59:20.607Z,9.20
2023-05-02T10:01:55.278Z,9.21
2023-05-02T10:04:21.899Z,9.35
2023-05-02T10:06:51.939Z,9.55
2023-05-02T10:09:21.518Z,9.76
2023-05-02T10:11:52.811Z,9.91
2023-05-02T10:14:21.547Z,10.03
2023-05-02T10:17:12.373Z,9.91
2023-05-02T10:19:45.963Z,9.48
2023-05-02T10:22:13.148Z,9.70
2023-05-02T10:24:41.238Z,9.49
2023-05-02T10:27:08.205Z,9.36
2023-05-02T10:29:35.954Z,9.93
2023-05-02T10:32:04.302Z,10.03
2023-05-02T10:34:33.869Z,10.32
2023-05-02T10:37:03.040Z,10.61
2023-05-02T10:39:30.134Z,10.08
2023-05-02T10:41:58.985Z,9.67
2023-05-02T10:44:39.796Z,10.14
2023-05-02T10:47:22.056Z,10.55
2023-05-02T10:49:54.158Z,10.70
2023-05-02T10:52:29.088Z,10.53
2023-05-02T10:55:15.649Z,10.22
2023-05-02T10:57:57.139Z,9.92
2023-05-02T11:00:27.887Z,9.96
2023-05-02T11:02:54.305Z,9.69
2023-05-02T11:05:22.445Z,9.88
2023-05-02T11:07:48.770Z,9.85
2023-05-02T11:10:18.122Z,9.80
2023-05-02T11:12:48.951Z,9.77
2023-05-02T11:15:41.490Z,9.98
2023-05-02T11:18:12.538Z,9.80
2023-05-02T11:20:40.641Z,9.94
2023-05-02T11:23:16.154Z,9.81
2023-05-02T11:25:45.038Z,10.05
2023-05-02T11:28:37.741Z,10.21
2023-05-02T11:31:08.591Z,10.30
2023-05-02T11:33:34.962Z,10.18
2023-05-02T11:36:01.837Z,10.49
2023-05-02T11:38:36.626Z,10.59
2023-05-02T11:41:04.135Z,10.35
2023-05-02T11:43:32.182Z,9.90
2023-05-02T11:46:00.476Z,9.97
2023-05-02T11:48:27.856Z,9.79
2023-05-02T11:50:56.643Z,9.45
2023-05-02T11:53:25.511Z,9.79
2023-05-02T11:55:56.496Z,9.68
2023-05-02T11:58:25.537Z,9.76
2023-05-02T12:00:53.071Z,9.58
2023-05-02T12:03:31.577Z,9.48
2023-05-02T12:06:12.644Z,8.95
2023-05-02T12:08:40.449Z,9.01
2023-05-02T12:11:07.163Z,8.93
2023-05-02T12:13:33.851Z,9.09
2023-05-02T12:16:00.959Z,9.03
2023-05-02T12:18:27.716Z,9.44
2023-05-02T12:20:55.900Z,9.29
2023-05-02T12:23:24.266Z,9.66
2023-05-02T12:25:50.715Z,9.85
2023-05-02T12:28:20.734Z,9.66
2023-05-02T12:30:49.645Z,9.85
2023-05-02T12:33:17.291Z,10.13
2023-05-02T12:35:46.033Z,10.14
2023-05-02T12:38:17.521Z,9.94
2023-05-02T12:40:52.310Z,9.27
2023-05-02T12:43:19.989Z,9.09
2023-05-02T12:45:48.426Z,9.04
2023-05-02T12:48:19.858Z,8.95
2023-05-02T12:50:46.612Z,9.01
2023-05-02T12:53:13.043Z,9.16
2023-05-02T12:55:39.672Z,9.20
2023-05-02T12:58:08.308Z,9.30
2023-05-02T13:00:37.671Z,9.41
2023-05-02T13:03:04.450Z,9.35
2023-05-02T13:05:30.989Z,9.43
2023-05-02T13:07:58.394Z,9.90
2023-05-02T13:10:26.118Z,9.71
2023-05-02T13:12:52.780Z,9.57
2023-05-02T13:15:19.708Z,9.82
2023-05-02T13:17:46.267Z,9.61
2023-05-02T13:20:13.132Z,9.59
2023-05-02T13:22:39.537Z,9.54
2023-05-02T13:25:06.865Z,9.76
2023-05-02T13:27:34.221Z,9.75
2023-05-02T13:30:08.432Z,9.69
2023-05-02T13:32:35.641Z,9.51
2023-05-02T13:35:04.080Z,9.36
2023-05-02T13:37:30.514Z,9.45
2023-05-02T13:39:57.178Z,9.33
2023-05-02T13:42:23.551Z,9.68
2023-05-02T13:44:50.038Z,9.75
2023-05-02T13:47:16.423Z,9.93
2023-05-02T13:49:42.713Z,9.71
2023-05-02T13:52:09.155Z,9.65
2023-05-02T13:54:35.463Z,9.56
2023-05-02T13:57:02.537Z,9.50
2023-05-02T13:59:28.795Z,9.28
2023-05-02T14:01:55.165Z,9.30
2023-05-02T14:04:22.281Z,9.17
2023-05-02T14:06:49.986Z,9.14
2023-05-02T14:09:16.927Z,9.11
2023-05-02T14:11:44.277Z,8.98
2023-05-02T14:14:12.418Z,8.92
2023-05-02T14:16:39.699Z,8.95
2023-05-02T14:19:06.191Z,9.18
2023-05-02T14:21:32.492Z,8.98
2023-05-02T14:23:58.792Z,9.19
2023-05-02T14:26:25.112Z,9.44
2023-05-02T14:28:51.509Z,9.39
2023-05-02T14:31:17.801Z,9.35
2023-05-02T14:33:44.255Z,9.36
2023-05-02T14:36:10.672Z,9.16
2023-05-02T14:38:37.180Z,9.02
2023-05-02T14:41:03.475Z,9.09
2023-05-02T14:43:29.761Z,9.02
2023-05-02T14:45:57.369Z,8.94
2023-05-02T14:48:23.857Z,8.98
2023-05-02T14:50:50.157Z,8.87
2023-05-02T14:53:16.716Z,8.88
2023-05-02T14:55:43.191Z,8.99
2023-05-02T14:58:10.201Z,9.13
2023-05-02T15:00:38.229Z,9.15
2023-05-02T15:03:07.690Z,9.06
2023-05-02T15:05:36.084Z,9.09
2023-05-02T15:08:02.522Z,9.17
2023-05-02T15:10:29.053Z,9.20
2023-05-02T15:12:55.364Z,9.34
2023-05-02T15:15:24.933Z,9.31
2023-05-02T15:17:52.007Z,9.43
2023-05-02T15:20:18.729Z,9.54
2023-05-02T15:22:45.196Z,9.73
2023-05-02T15:25:11.868Z,9.77
2023-05-02T15:27:38.266Z,9.72
2023-05-02T15:30:06.575Z,9.50
2023-05-02T15:32:33.406Z,9.58
2023-05-02T15:34:59.810Z,9.41
2023-05-02T15:37:26.185Z,9.43
2023-05-02T15:39:52.575Z,9.59
2023-05-02T15:42:18.961Z,9.52
2023-05-02T15:44:45.298Z,9.46
2023-05-02T15:47:11.729Z,9.38
2023-05-02T15:49:38.656Z,9.34
2023-05-02T15:52:04.968Z,9.35
2023-05-02T15:54:32.045Z,9.33
2023-05-02T15:56:58.483Z,9.33
2023-05-02T15:59:24.850Z,9.29
2023-05-02T16:01:51.266Z,9.27
2023-05-02T16:04:17.650Z,9.21
2023-05-02T16:06:44.249Z,9.07
2023-05-02T16:09:11.125Z,9.01
2023-05-02T16:11:37.400Z,9.07
2023-05-02T16:14:03.889Z,9.13
2023-05-02T16:16:30.270Z,9.31
2023-05-02T16:18:56.593Z,9.43
2023-05-02T16:21:22.966Z,9.43
2023-05-02T16:23:49.289Z,9.25
2023-05-02T16:26:15.557Z,9.27
2023-05-02T16:28:41.901Z,9.06
2023-05-02T16:31:11.247Z,9.31
2023-05-02T16:33:38.939Z,9.41
2023-05-02T16:36:06.360Z,9.44
2023-05-02T16:38:32.836Z,9.25
2023-05-02T16:41:03.198Z,9.11
2023-05-02T16:43:29.521Z,9.03
2023-05-02T16:46:03.671Z,8.97
2023-05-02T16:48:30.235Z,8.80
2023-05-02T16:50:57.177Z,8.59
2023-05-02T16:53:24.072Z,8.63
2023-05-02T16:55:50.487Z,8.78
2023-05-02T16:58:16.820Z,8.69
2023-05-02T17:00:43.240Z,8.59
2023-05-02T17:03:09.809Z,8.49
2023-05-02T17:05:36.321Z,8.43
2023-05-02T17:08:02.783Z,8.57
2023-05-02T17:10:29.337Z,8.66
2023-05-02T17:12:57.182Z,8.61
2023-05-02T17:15:23.538Z,8.65
2023-05-02T17:17:50.029Z,8.61
2023-05-02T17:20:17.417Z,8.33
2023-05-02T17:22:43.736Z,8.25
2023-05-02T17:25:12.991Z,8.28
2023-05-02T17:27:40.858Z,8.21
2023-05-02T17:30:08.090Z,8.22
2023-05-02T17:32:35.280Z,8.35
2023-05-02T17:35:01.619Z,8.33
2023-05-02T17:37:27.885Z,8.33
2023-05-02T17:39:54.391Z,8.29
2023-05-02T17:42:20.723Z,8.18
2023-05-02T17:44:48.268Z,8.23
2023-05-02T17:47:14.597Z,8.11
2023-05-02T17:49:40.854Z,8.04
2023-05-02T17:52:07.147Z,8.12
2023-05-02T17:54:33.483Z,8.09
2023-05-02T17:56:59.923Z,7.94
2023-05-02T17:59:27.171Z,7.98
2023-05-02T18:01:53.473Z,8.00
2023-05-02T18:04:20.525Z,8.05
2023-05-02T18:06:46.906Z,8.04
2023-05-02T18:09:13.279Z,8.04
2023-05-02T18:11:39.803Z,8.04
2023-05-02T18:14:06.404Z,8.00
2023-05-02T18:16:34.283Z,7.98
2023-05-02T18:19:01.213Z,8.06
2023-05-02T18:21:28.112Z,7.84
2023-05-02T18:23:56.552Z,7.85
2023-05-02T18:26:22.937Z,7.71
2023-05-02T18:28:53.013Z,7.70
2023-05-02T18:31:20.075Z,7.79
2023-05-02T18:33:49.465Z,7.64
2023-05-02T18:36:20.614Z,7.60
2023-05-02T18:38:46.972Z,7.65
2023-05-02T18:41:13.324Z,7.62
2023-05-02T18:43:39.656Z,7.63
2023-05-02T18:46:07.735Z,7.52
2023-05-02T18:48:35.225Z,7.56
2023-05-02T18:51:02.508Z,7.52
2023-05-02T18:53:28.820Z,7.46
2023-05-02T18:55:55.398Z,7.35
2023-05-02T18:58:22.485Z,7.28
2023-05-02T19:00:48.996Z,7.20
2023-05-02T19:03:15.739Z,7.18
2023-05-02T19:05:42.988Z,7.16
2023-05-02T19:08:09.444Z,7.02
2023-05-02T19:10:35.854Z,6.99
2023-05-02T19:13:02.480Z,6.93
2023-05-02T19:15:28.868Z,6.97
2023-05-02T19:17:56.744Z,6.93
2023-05-02T19:20:23.209Z,6.85
2023-05-02T19:22:49.923Z,6.86
2023-05-02T19:25:17.828Z,6.93
2023-05-02T19:27:45.056Z,6.84
2023-05-02T19:30:14.537Z,6.80
2023-05-02T19:32:41.969Z,6.77
2023-05-02T19:35:09.010Z,6.73
2023-05-02T19:37:35.612Z,6.68
2023-05-02T19:40:01.920Z,6.64
2023-05-02T19:42:28.736Z,6.61
2023-05-02T19:44:55.098Z,6.66
2023-05-02T19:47:22.254Z,6.69
2023-05-02T19:49:50.865Z,6.69
2023-05-02T19:52:17.235Z,6.73
2023-05-02T19:54:43.583Z,6.73
2023-05-02T19:57:09.892Z,6.77
2023-05-02T19:59:36.265Z,6.83
2023-05-02T20:02:02.794Z,6.84
2023-05-02T20:04:29.114Z,6.75
2023-05-02T20:06:55.517Z,6.70
2023-05-02T20:09:21.926Z,6.79
2023-05-02T20:11:48.279Z,6.81
2023-05-02T20:14:15.504Z,6.71
2023-05-02T20:16:41.944Z,6.79
2023-05-02T20:19:08.382Z,6.80
2023-05-02T20:21:34.854Z,6.76
2023-05-02T20:24:01.263Z,6.74
2023-05-02T20:26:31.111Z,6.64
2023-05-02T20:28:58.705Z,6.69
2023-05-02T20:31:26.054Z,6.75
2023-05-02T20:33:53.420Z,6.75
2023-05-02T20:36:19.742Z,6.75
2023-05-02T20:38:47.726Z,6.74
2023-05-02T20:41:14.877Z,6.73
2023-05-02T20:43:44.435Z,6.69
2023-05-02T20:46:12.152Z,6.61
2023-05-02T20:48:38.646Z,6.54
2023-05-02T20:51:04.998Z,6.43
2023-05-02T20:53:31.279Z,6.43
2023-05-02T20:55:57.562Z,6.41
2023-05-02T20:58:23.923Z,6.32
2023-05-02T21:00:52.374Z,6.33
2023-05-02T21:03:21.852Z,6.35
2023-05-02T21:05:52.301Z,6.36
2023-05-02T21:08:18.833Z,6.38
2023-05-02T21:10:45.577Z,6.38
2023-05-02T21:13:12.105Z,6.29
2023-05-02T21:15:39.780Z,6.13
2023-05-02T21:18:07.080Z,6.11
2023-05-02T21:20:33.885Z,6.23
2023-05-02T21:23:00.201Z,6.16
2023-05-02T21:25:26.637Z,6.19
2023-05-02T21:27:53.333Z,6.09
2023-05-02T21:30:19.788Z,6.07
2023-05-02T21:32:46.230Z,5.92
2023-05-02T21:35:12.528Z,5.92
2023-05-02T21:37:38.838Z,5.94
2023-05-02T21:40:06.018Z,5.84
2023-05-02T21:42:32.368Z,5.74
2023-05-02T21:44:58.638Z,5.67
2023-05-02T21:47:24.957Z,5.72
2023-05-02T21:49:53.121Z,5.72
2023-05-02T21:52:19.448Z,5.60
2023-05-02T21:54:49.748Z,5.54
2023-05-02T21:57:16.006Z,5.49
2023-05-02T21:59:42.779Z,5.48
2023-05-02T22:02:09.639Z,5.42
2023-05-02T22:04:36.404Z,5.45
2023-05-02T22:07:02.756Z,5.38
2023-05-02T22:09:32.083Z,5.31
2023-05-02T22:11:59.590Z,5.26
2023-05-02T22:14:33.702Z,5.21
2023-05-02T22:17:08.095Z,5.22
2023-05-02T22:19:34.411Z,5.14
2023-05-02T22:22:01.528Z,5.13
2023-05-02T22:24:28.670Z,5.07
2023-05-02T22:26:56.102Z,5.05
2023-05-02T22:29:22.816Z,5.00
2023-05-02T22:31:49.942Z,4.99
2023-05-02T22:34:16.330Z,4.99
2023-05-02T22:36:42.654Z,4.94
2023-05-02T22:39:12.782Z,4.93
2023-05-02T22:41:39.123Z,4.98
2023-05-02T22:44:05.540Z,4.93
2023-05-02T22:46:31.950Z,4.90
2023-05-02T22:48:58.683Z,4.87
2023-05-02T22:51:28.119Z,4.88
2023-05-02T22:53:55.370Z,4.86
2023-05-02T22:56:22.191Z,4.85
2023-05-02T22:58:49.791Z,4.79
2023-05-02T23:01:16.352Z,4.74
2023-05-02T23:03:43.201Z,4.76
2023-05-02T23:06:09.695Z,4.72
2023-05-02T23:08:36.005Z,4.71
2023-05-02T23:11:02.537Z,4.66
2023-05-02T23:13:28.871Z,4.54
2023-05-02T23:15:55.677Z,4.52
2023-05-02T23:18:22.862Z,4.52
2023-05-02T23:20:49.204Z,4.46
2023-05-02T23:23:15.550Z,4.39
2023-05-02T23:25:41.885Z,4.37
2023-05-02T23:28:08.269Z,4.33
2023-05-02T23:30:34.660Z,4.36
2023-05-02T23:33:01.239Z,4.36
2023-05-02T23:35:27.560Z,4.39
2023-05-02T23:37:54.062Z,4.36
2023-05-02T23:40:20.560Z,4.29
2023-05-02T23:42:46.955Z,4.24
2023-05-02T23:45:13.321Z,4.22
2023-05-02T23:47:39.735Z,4.20
2023-05-02T23:50:06.742Z,4.17
2023-05-02T23:52:33.672Z,4.18
2023-05-02T23:54:59.992Z,4.13
2023-05-02T23:57:28.800Z,4.07
2023-05-02T23:59:55.808Z,4.01
